sensor_id;sensor_type;location;lat;lon;timestamp;P1;durP1;ratioP1;P2;durP2;ratioP2
79173;SDS011;68599;49.142;9.124;2023-03-14T00:01:34;0.00;;;0.00;;
79173;SDS011;68599;49.142;9.124;2023-03-14T07:18:36;1.50;;;0.50;;
79173;SDS011;68599;49.142;9.124;2023-03-14T07:21:04;2.40;;;0.40;;
79173;SDS011;68599;49.142;9.124;2023-03-14T07:23:32;2.30;;;0.40;;
79173;SDS011;68599;49.142;9.124;2023-03-14T07:25:58;0.60;;;0.20;;
79173;SDS011;68599;49.142;9.124;2023-03-14T07:28:25;1.40;;;0.20;;
79173;SDS011;68599;49.142;9.124;2023-03-14T07:30:53;1.30;;;0.40;;
79173;SDS011;68599;49.142;9.124;2023-03-14T07:33:21;1.00;;;0.20;;
79173;SDS011;68599;49.142;9.124;2023-03-14T07:35:48;1.00;;;0.40;;
79173;SDS011;68599;49.142;9.124;2023-03-14T07:38:15;2.80;;;0.40;;
79173;SDS011;68599;49.142;9.124;2023-03-14T07:40:42;1.40;;;0.40;;
79173;SDS011;68599;49.142;9.124;2023-03-14T07:43:09;2.60;;;0.50;;
79173;SDS011;68599;49.142;9.124;2023-03-14T07:45:35;2.10;;;0.30;;
79173;SDS011;68599;49.142;9.124;2023-03-14T07:48:08;1.70;;;0.30;;
79173;SDS011;68599;49.142;9.124;2023-03-14T07:50:34;0.50;;;0.20;;
79173;SDS011;68599;49.142;9.124;2023-03-14T07:53:01;0.80;;;0.30;;
79173;SDS011;68599;49.142;9.124;2023-03-14T07:55:27;2.10;;;0.20;;
79173;SDS011;68599;49.142;9.124;2023-03-14T07:57:53;1.20;;;0.20;;
79173;SDS011;68599;49.142;9.124;2023-03-14T08:00:20;1.20;;;0.20;;
79173;SDS011;68599;49.142;9.124;2023-03-14T08:02:47;0.90;;;0.20;;
79173;SDS011;68599;49.142;9.124;2023-03-14T08:05:14;1.80;;;0.20;;
79173;SDS011;68599;49.142;9.124;2023-03-14T08:07:40;0.30;;;0.10;;
79173;SDS011;68599;49.142;9.124;2023-03-14T08:10:07;0.50;;;0.10;;
79173;SDS011;68599;49.142;9.124;2023-03-14T08:12:34;1.30;;;0.10;;
79173;SDS011;68599;49.142;9.124;2023-03-14T08:15:01;0.90;;;0.20;;
79173;SDS011;68599;49.142;9.124;2023-03-14T08:17:28;0.60;;;0.10;;
79173;SDS011;68599;49.142;9.124;2023-03-14T08:19:54;1.20;;;0.20;;
79173;SDS011;68599;49.142;9.124;2023-03-14T08:22:21;4.10;;;0.20;;
79173;SDS011;68599;49.142;9.124;2023-03-14T08:25:56;0.40;;;0.10;;
79173;SDS011;68599;49.142;9.124;2023-03-14T08:28:23;0.40;;;0.20;;
79173;SDS011;68599;49.142;9.124;2023-03-14T08:30:49;0.50;;;0.30;;
79173;SDS011;68599;49.142;9.124;2023-03-14T08:33:16;0.70;;;0.10;;
79173;SDS011;68599;49.142;9.124;2023-03-14T08:35:42;2.70;;;0.10;;
79173;SDS011;68599;49.142;9.124;2023-03-14T08:38:09;1.20;;;0.10;;
79173;SDS011;68599;49.142;9.124;2023-03-14T08:40:35;0.90;;;0.10;;
79173;SDS011;68599;49.142;9.124;2023-03-14T08:43:02;0.10;;;0.00;;
79173;SDS011;68599;49.142;9.124;2023-03-14T08:45:28;0.50;;;0.20;;
79173;SDS011;68599;49.142;9.124;2023-03-14T08:47:55;1.00;;;0.30;;
79173;SDS011;68599;49.142;9.124;2023-03-14T08:50:21;0.20;;;0.00;;
79173;SDS011;68599;49.142;9.124;2023-03-14T08:52:49;0.70;;;0.10;;
79173;SDS011;68599;49.142;9.124;2023-03-14T08:55:16;0.40;;;0.20;;
79173;SDS011;68599;49.142;9.124;2023-03-14T08:57:42;0.50;;;0.10;;
79173;SDS011;68599;49.142;9.124;2023-03-14T09:00:09;1.30;;;0.10;;
79173;SDS011;68599;49.142;9.124;2023-03-14T09:02:41;0.60;;;0.10;;
79173;SDS011;68599;49.142;9.124;2023-03-14T09:05:09;0.20;;;0.10;;
79173;SDS011;68599;49.142;9.124;2023-03-14T09:07:36;0.80;;;0.10;;
79173;SDS011;68599;49.142;9.124;2023-03-14T09:10:04;2.00;;;0.20;;
79173;SDS011;68599;49.142;9.124;2023-03-14T09:12:32;0.40;;;0.10;;
79173;SDS011;68599;49.142;9.124;2023-03-14T09:14:59;1.50;;;0.20;;
79173;SDS011;68599;49.142;9.124;2023-03-14T09:17:25;0.60;;;0.10;;
79173;SDS011;68599;49.142;9.124;2023-03-14T09:19:52;0.20;;;0.10;;
79173;SDS011;68599;49.142;9.124;2023-03-14T09:22:18;0.60;;;0.20;;
79173;SDS011;68599;49.142;9.124;2023-03-14T09:24:45;3.10;;;0.20;;
79173;SDS011;68599;49.142;9.124;2023-03-14T09:27:11;0.40;;;0.00;;
79173;SDS011;68599;49.142;9.124;2023-03-14T09:29:38;0.50;;;0.20;;
79173;SDS011;68599;49.142;9.124;2023-03-14T09:32:04;0.10;;;0.10;;
79173;SDS011;68599;49.142;9.124;2023-03-14T09:34:31;0.30;;;0.00;;
79173;SDS011;68599;49.142;9.124;2023-03-14T09:36:57;0.20;;;0.00;;
79173;SDS011;68599;49.142;9.124;2023-03-14T09:39:24;0.10;;;0.10;;
79173;SDS011;68599;49.142;9.124;2023-03-14T09:41:51;0.50;;;0.20;;
79173;SDS011;68599;49.142;9.124;2023-03-14T09:44:30;0.60;;;0.10;;
79173;SDS011;68599;49.142;9.124;2023-03-14T09:47:03;0.60;;;0.10;;
79173;SDS011;68599;49.142;9.124;2023-03-14T09:49:36;0.50;;;0.10;;
79173;SDS011;68599;49.142;9.124;2023-03-14T09:52:13;0.50;;;0.20;;
79173;SDS011;68599;49.142;9.124;2023-03-14T09:54:44;1.30;;;0.10;;
79173;SDS011;68599;49.142;9.124;2023-03-14T09:57:15;0.50;;;0.10;;
79173;SDS011;68599;49.142;9.124;2023-03-14T09:59:44;1.40;;;0.10;;
79173;SDS011;68599;49.142;9.124;2023-03-14T10:02:22;1.50;;;0.30;;
79173;SDS011;68599;49.142;9.124;2023-03-14T10:04:51;0.60;;;0.20;;
79173;SDS011;68599;49.142;9.124;2023-03-14T10:09:56;0.70;;;0.10;;
79173;SDS011;68599;49.142;9.124;2023-03-14T10:12:31;1.00;;;0.20;;
79173;SDS011;68599;49.142;9.124;2023-03-14T10:15:09;1.60;;;0.20;;
79173;SDS011;68599;49.142;9.124;2023-03-14T10:17:42;0.20;;;0.10;;
79173;SDS011;68599;49.142;9.124;2023-03-14T10:25:37;0.40;;;0.10;;
79173;SDS011;68599;49.142;9.124;2023-03-14T10:28:27;0.30;;;0.10;;
79173;SDS011;68599;49.142;9.124;2023-03-14T10:30:54;0.90;;;0.20;;
79173;SDS011;68599;49.142;9.124;2023-03-14T10:33:23;0.20;;;0.00;;
79173;SDS011;68599;49.142;9.124;2023-03-14T10:35:52;0.30;;;0.10;;
79173;SDS011;68599;49.142;9.124;2023-03-14T10:38:22;0.80;;;0.20;;
79173;SDS011;68599;49.142;9.124;2023-03-14T10:40:51;2.50;;;0.10;;
79173;SDS011;68599;49.142;9.124;2023-03-14T10:43:22;0.10;;;0.00;;
79173;SDS011;68599;49.142;9.124;2023-03-14T10:45:54;0.20;;;0.00;;
79173;SDS011;68599;49.142;9.124;2023-03-14T10:48:34;0.30;;;0.10;;
79173;SDS011;68599;49.142;9.124;2023-03-14T10:53:33;0.50;;;0.00;;
79173;SDS011;68599;49.142;9.124;2023-03-14T10:56:06;0.20;;;0.00;;
79173;SDS011;68599;49.142;9.124;2023-03-14T10:58:33;0.10;;;0.00;;
79173;SDS011;68599;49.142;9.124;2023-03-14T11:01:09;0.40;;;0.10;;
79173;SDS011;68599;49.142;9.124;2023-03-14T11:09:45;0.70;;;0.10;;
79173;SDS011;68599;49.142;9.124;2023-03-14T11:12:52;1.50;;;0.10;;
79173;SDS011;68599;49.142;9.124;2023-03-14T11:15:47;0.20;;;0.00;;
79173;SDS011;68599;49.142;9.124;2023-03-14T11:26:43;0.00;;;0.00;;
79173;SDS011;68599;49.142;9.124;2023-03-14T11:32:42;0.20;;;0.10;;
79173;SDS011;68599;49.142;9.124;2023-03-14T11:35:20;0.00;;;0.00;;
79173;SDS011;68599;49.142;9.124;2023-03-14T11:37:54;0.30;;;0.10;;
79173;SDS011;68599;49.142;9.124;2023-03-14T11:40:25;1.40;;;0.10;;
79173;SDS011;68599;49.142;9.124;2023-03-14T11:42:59;0.00;;;0.00;;
79173;SDS011;68599;49.142;9.124;2023-03-14T11:45:35;0.00;;;0.00;;
79173;SDS011;68599;49.142;9.124;2023-03-14T11:50:53;0.10;;;0.00;;
79173;SDS011;68599;49.142;9.124;2023-03-14T11:53:36;0.10;;;0.00;;
79173;SDS011;68599;49.142;9.124;2023-03-14T11:56:13;0.00;;;0.00;;
79173;SDS011;68599;49.142;9.124;2023-03-14T11:58:51;0.00;;;0.00;;
79173;SDS011;68599;49.142;9.124;2023-03-14T12:01:27;0.00;;;0.00;;
79173;SDS011;68599;49.142;9.124;2023-03-14T12:06:48;0.20;;;0.10;;
79173;SDS011;68599;49.142;9.124;2023-03-14T12:09:16;1.60;;;0.10;;
79173;SDS011;68599;49.142;9.124;2023-03-14T12:14:27;0.20;;;0.10;;
79173;SDS011;68599;49.142;9.124;2023-03-14T12:16:54;0.60;;;0.10;;
79173;SDS011;68599;49.142;9.124;2023-03-14T12:21:51;0.30;;;0.20;;
79173;SDS011;68599;49.142;9.124;2023-03-14T12:24:23;0.10;;;0.10;;
79173;SDS011;68599;49.142;9.124;2023-03-14T12:26:54;1.20;;;0.40;;
79173;SDS011;68599;49.142;9.124;2023-03-14T12:29:22;0.60;;;0.40;;
79173;SDS011;68599;49.142;9.124;2023-03-14T12:36:59;0.70;;;0.30;;
79173;SDS011;68599;49.142;9.124;2023-03-14T12:45:28;0.70;;;0.20;;
79173;SDS011;68599;49.142;9.124;2023-03-14T12:50:33;1.50;;;0.40;;
79173;SDS011;68599;49.142;9.124;2023-03-14T12:55:59;0.60;;;0.30;;
79173;SDS011;68599;49.142;9.124;2023-03-14T13:03:46;1.50;;;0.20;;
79173;SDS011;68599;49.142;9.124;2023-03-14T13:06:44;0.40;;;0.10;;
79173;SDS011;68599;49.142;9.124;2023-03-14T13:11:56;0.80;;;0.30;;
79173;SDS011;68599;49.142;9.124;2023-03-14T13:14:30;1.00;;;0.30;;
79173;SDS011;68599;49.142;9.124;2023-03-14T13:17:01;0.90;;;0.30;;
79173;SDS011;68599;49.142;9.124;2023-03-14T13:19:52;1.90;;;0.40;;
79173;SDS011;68599;49.142;9.124;2023-03-14T13:22:24;0.50;;;0.30;;
79173;SDS011;68599;49.142;9.124;2023-03-14T13:25:03;0.40;;;0.30;;
79173;SDS011;68599;49.142;9.124;2023-03-14T13:27:33;0.90;;;0.40;;
79173;SDS011;68599;49.142;9.124;2023-03-14T13:30:44;2.00;;;0.30;;
79173;SDS011;68599;49.142;9.124;2023-03-14T13:32:56;1.20;;;0.40;;
79173;SDS011;68599;49.142;9.124;2023-03-14T13:35:26;1.90;;;0.40;;
79173;SDS011;68599;49.142;9.124;2023-03-14T13:37:56;0.60;;;0.30;;
79173;SDS011;68599;49.142;9.124;2023-03-14T13:40:37;1.00;;;0.30;;
79173;SDS011;68599;49.142;9.124;2023-03-14T13:43:14;0.80;;;0.30;;
79173;SDS011;68599;49.142;9.124;2023-03-14T13:45:44;0.70;;;0.30;;
79173;SDS011;68599;49.142;9.124;2023-03-14T13:50:53;0.40;;;0.20;;
79173;SDS011;68599;49.142;9.124;2023-03-14T13:53:24;2.20;;;0.30;;
79173;SDS011;68599;49.142;9.124;2023-03-14T13:55:51;1.00;;;0.30;;
79173;SDS011;68599;49.142;9.124;2023-03-14T13:58:19;2.70;;;0.40;;
79173;SDS011;68599;49.142;9.124;2023-03-14T14:03:33;1.80;;;0.20;;
79173;SDS011;68599;49.142;9.124;2023-03-14T14:06:04;2.00;;;0.40;;
79173;SDS011;68599;49.142;9.124;2023-03-14T14:08:35;2.10;;;0.40;;
79173;SDS011;68599;49.142;9.124;2023-03-14T14:11:03;0.50;;;0.20;;
79173;SDS011;68599;49.142;9.124;2023-03-14T14:13:32;0.50;;;0.30;;
79173;SDS011;68599;49.142;9.124;2023-03-14T14:16:00;2.20;;;0.80;;
79173;SDS011;68599;49.142;9.124;2023-03-14T14:18:30;1.00;;;0.30;;
79173;SDS011;68599;49.142;9.124;2023-03-14T14:20:58;1.70;;;0.50;;
79173;SDS011;68599;49.142;9.124;2023-03-14T14:23:25;1.40;;;0.40;;
79173;SDS011;68599;49.142;9.124;2023-03-14T14:25:58;1.10;;;0.30;;
79173;SDS011;68599;49.142;9.124;2023-03-14T14:28:27;1.10;;;0.20;;
79173;SDS011;68599;49.142;9.124;2023-03-14T14:36:27;0.80;;;0.20;;
79173;SDS011;68599;49.142;9.124;2023-03-14T14:39:05;0.70;;;0.20;;
79173;SDS011;68599;49.142;9.124;2023-03-14T14:41:33;1.10;;;0.30;;
79173;SDS011;68599;49.142;9.124;2023-03-14T14:44:02;0.80;;;0.30;;
79173;SDS011;68599;49.142;9.124;2023-03-14T14:46:30;1.30;;;0.40;;
79173;SDS011;68599;49.142;9.124;2023-03-14T14:49:09;2.40;;;0.40;;
79173;SDS011;68599;49.142;9.124;2023-03-14T14:51:40;2.30;;;0.30;;
79173;SDS011;68599;49.142;9.124;2023-03-14T14:54:11;1.70;;;0.40;;
79173;SDS011;68599;49.142;9.124;2023-03-14T14:56:40;1.80;;;0.70;;
79173;SDS011;68599;49.142;9.124;2023-03-14T14:59:18;1.70;;;0.50;;
79173;SDS011;68599;49.142;9.124;2023-03-14T15:01:50;2.70;;;0.80;;
79173;SDS011;68599;49.142;9.124;2023-03-14T15:04:22;0.80;;;0.30;;
79173;SDS011;68599;49.142;9.124;2023-03-14T15:06:49;1.40;;;0.30;;
79173;SDS011;68599;49.142;9.124;2023-03-14T15:11:43;2.40;;;0.60;;
79173;SDS011;68599;49.142;9.124;2023-03-14T15:14:10;1.30;;;0.40;;
79173;SDS011;68599;49.142;9.124;2023-03-14T15:16:37;1.20;;;0.30;;
79173;SDS011;68599;49.142;9.124;2023-03-14T15:19:19;0.40;;;0.20;;
79173;SDS011;68599;49.142;9.124;2023-03-14T15:21:52;1.60;;;0.40;;
79173;SDS011;68599;49.142;9.124;2023-03-14T15:24:19;1.70;;;0.30;;
79173;SDS011;68599;49.142;9.124;2023-03-14T15:26:46;1.60;;;0.30;;
79173;SDS011;68599;49.142;9.124;2023-03-14T15:29:13;1.80;;;0.40;;
79173;SDS011;68599;49.142;9.124;2023-03-14T15:31:40;1.70;;;0.30;;
79173;SDS011;68599;49.142;9.124;2023-03-14T15:34:10;1.10;;;0.30;;
79173;SDS011;68599;49.142;9.124;2023-03-14T15:36:37;1.20;;;0.40;;
79173;SDS011;68599;49.142;9.124;2023-03-14T15:39:05;0.60;;;0.20;;
79173;SDS011;68599;49.142;9.124;2023-03-14T15:41:33;3.20;;;0.50;;
79173;SDS011;68599;49.142;9.124;2023-03-14T15:43:59;1.10;;;0.20;;
79173;SDS011;68599;49.142;9.124;2023-03-14T15:46:26;2.40;;;0.30;;
79173;SDS011;68599;49.142;9.124;2023-03-14T15:48:56;1.80;;;0.40;;
79173;SDS011;68599;49.142;9.124;2023-03-14T15:51:22;2.80;;;0.50;;
79173;SDS011;68599;49.142;9.124;2023-03-14T15:53:49;0.60;;;0.30;;
79173;SDS011;68599;49.142;9.124;2023-03-14T15:56:16;2.60;;;0.40;;
79173;SDS011;68599;49.142;9.124;2023-03-14T15:58:44;1.60;;;0.20;;
79173;SDS011;68599;49.142;9.124;2023-03-14T16:01:14;3.20;;;0.60;;
79173;SDS011;68599;49.142;9.124;2023-03-14T16:03:43;1.10;;;0.50;;
79173;SDS011;68599;49.142;9.124;2023-03-14T16:06:11;2.70;;;0.30;;
79173;SDS011;68599;49.142;9.124;2023-03-14T16:08:39;1.40;;;0.50;;
79173;SDS011;68599;49.142;9.124;2023-03-14T16:11:06;2.70;;;0.50;;
79173;SDS011;68599;49.142;9.124;2023-03-14T16:13:33;0.90;;;0.50;;
79173;SDS011;68599;49.142;9.124;2023-03-14T16:16:00;2.50;;;1.30;;
79173;SDS011;68599;49.142;9.124;2023-03-14T16:18:29;2.60;;;0.40;;
79173;SDS011;68599;49.142;9.124;2023-03-14T16:20:59;2.20;;;0.50;;
79173;SDS011;68599;49.142;9.124;2023-03-14T16:23:28;4.40;;;0.60;;
79173;SDS011;68599;49.142;9.124;2023-03-14T16:25:56;2.50;;;0.60;;
79173;SDS011;68599;49.142;9.124;2023-03-14T16:28:23;3.20;;;0.60;;
79173;SDS011;68599;49.142;9.124;2023-03-14T16:30:50;2.10;;;0.30;;
79173;SDS011;68599;49.142;9.124;2023-03-14T16:33:17;1.70;;;0.60;;
79173;SDS011;68599;49.142;9.124;2023-03-14T16:35:54;1.80;;;0.80;;
79173;SDS011;68599;49.142;9.124;2023-03-14T16:38:23;3.50;;;0.50;;
79173;SDS011;68599;49.142;9.124;2023-03-14T16:43:35;3.30;;;0.50;;
79173;SDS011;68599;49.142;9.124;2023-03-14T16:46:02;2.90;;;0.70;;
79173;SDS011;68599;49.142;9.124;2023-03-14T16:48:30;0.80;;;0.40;;
79173;SDS011;68599;49.142;9.124;2023-03-14T16:50:57;3.00;;;0.80;;
79173;SDS011;68599;49.142;9.124;2023-03-14T16:53:24;1.30;;;0.30;;
79173;SDS011;68599;49.142;9.124;2023-03-14T16:55:54;0.80;;;0.30;;
79173;SDS011;68599;49.142;9.124;2023-03-14T16:58:20;3.20;;;0.60;;
79173;SDS011;68599;49.142;9.124;2023-03-14T17:02:29;3.30;;;0.50;;
79173;SDS011;68599;49.142;9.124;2023-03-14T17:04:56;1.30;;;0.30;;
79173;SDS011;68599;49.142;9.124;2023-03-14T17:07:22;2.00;;;0.70;;
79173;SDS011;68599;49.142;9.124;2023-03-14T17:09:49;4.00;;;1.10;;
79173;SDS011;68599;49.142;9.124;2023-03-14T17:14:43;2.40;;;0.50;;
79173;SDS011;68599;49.142;9.124;2023-03-14T17:17:09;1.40;;;0.60;;
79173;SDS011;68599;49.142;9.124;2023-03-14T17:19:36;3.40;;;0.80;;
79173;SDS011;68599;49.142;9.124;2023-03-14T17:22:02;4.10;;;0.50;;
79173;SDS011;68599;49.142;9.124;2023-03-14T17:24:49;1.50;;;0.50;;
79173;SDS011;68599;49.142;9.124;2023-03-14T17:27:15;4.20;;;0.60;;
79173;SDS011;68599;49.142;9.124;2023-03-14T17:29:45;2.20;;;0.40;;
79173;SDS011;68599;49.142;9.124;2023-03-14T17:32:13;5.50;;;1.10;;
79173;SDS011;68599;49.142;9.124;2023-03-14T17:34:40;1.60;;;0.30;;
79173;SDS011;68599;49.142;9.124;2023-03-14T17:37:06;2.70;;;0.70;;
79173;SDS011;68599;49.142;9.124;2023-03-14T17:39:33;2.40;;;0.90;;
79173;SDS011;68599;49.142;9.124;2023-03-14T17:42:00;2.40;;;0.50;;
79173;SDS011;68599;49.142;9.124;2023-03-14T17:44:26;1.30;;;0.30;;
79173;SDS011;68599;49.142;9.124;2023-03-14T17:46:53;3.10;;;0.60;;
79173;SDS011;68599;49.142;9.124;2023-03-14T17:49:21;3.10;;;0.50;;
79173;SDS011;68599;49.142;9.124;2023-03-14T17:51:47;2.10;;;0.50;;
79173;SDS011;68599;49.142;9.124;2023-03-14T17:54:14;0.70;;;0.40;;
79173;SDS011;68599;49.142;9.124;2023-03-14T17:56:40;1.80;;;0.60;;
79173;SDS011;68599;49.142;9.124;2023-03-14T17:59:09;1.70;;;0.50;;
79173;SDS011;68599;49.142;9.124;2023-03-14T18:01:36;1.20;;;0.40;;
79173;SDS011;68599;49.142;9.124;2023-03-14T18:04:03;2.90;;;0.60;;
79173;SDS011;68599;49.142;9.124;2023-03-14T18:06:30;1.80;;;0.60;;
79173;SDS011;68599;49.142;9.124;2023-03-14T18:08:57;4.30;;;0.70;;
79173;SDS011;68599;49.142;9.124;2023-03-14T18:11:26;3.10;;;0.40;;
79173;SDS011;68599;49.142;9.124;2023-03-14T18:13:53;1.50;;;0.60;;
79173;SDS011;68599;49.142;9.124;2023-03-14T18:16:20;3.10;;;0.50;;
79173;SDS011;68599;49.142;9.124;2023-03-14T18:18:47;0.80;;;0.40;;
79173;SDS011;68599;49.142;9.124;2023-03-14T18:23:41;1.00;;;0.20;;
79173;SDS011;68599;49.142;9.124;2023-03-14T18:26:08;3.80;;;0.70;;
79173;SDS011;68599;49.142;9.124;2023-03-14T18:28:34;2.10;;;0.50;;
79173;SDS011;68599;49.142;9.124;2023-03-14T18:31:02;1.80;;;0.60;;
79173;SDS011;68599;49.142;9.124;2023-03-14T18:33:32;1.30;;;0.50;;
79173;SDS011;68599;49.142;9.124;2023-03-14T18:36:06;2.20;;;0.60;;
79173;SDS011;68599;49.142;9.124;2023-03-14T18:38:34;2.60;;;0.60;;
79173;SDS011;68599;49.142;9.124;2023-03-14T18:41:04;1.40;;;0.50;;
79173;SDS011;68599;49.142;9.124;2023-03-14T18:43:32;1.30;;;0.40;;
79173;SDS011;68599;49.142;9.124;2023-03-14T18:46:00;2.00;;;0.40;;
79173;SDS011;68599;49.142;9.124;2023-03-14T18:48:27;0.90;;;0.30;;
79173;SDS011;68599;49.142;9.124;2023-03-14T18:50:54;2.80;;;0.60;;
79173;SDS011;68599;49.142;9.124;2023-03-14T18:53:23;1.80;;;0.30;;
79173;SDS011;68599;49.142;9.124;2023-03-14T18:55:57;1.60;;;0.50;;
79173;SDS011;68599;49.142;9.124;2023-03-14T18:58:24;2.40;;;0.50;;
79173;SDS011;68599;49.142;9.124;2023-03-14T19:00:57;2.80;;;0.60;;
79173;SDS011;68599;49.142;9.124;2023-03-14T19:03:24;2.50;;;0.60;;
79173;SDS011;68599;49.142;9.124;2023-03-14T19:05:54;1.70;;;0.70;;
79173;SDS011;68599;49.142;9.124;2023-03-14T19:08:22;2.50;;;0.40;;
79173;SDS011;68599;49.142;9.124;2023-03-14T19:10:50;1.70;;;0.40;;
79173;SDS011;68599;49.142;9.124;2023-03-14T19:13:22;2.30;;;0.60;;
79173;SDS011;68599;49.142;9.124;2023-03-14T19:15:50;1.60;;;0.60;;
79173;SDS011;68599;49.142;9.124;2023-03-14T19:18:17;3.00;;;0.40;;
79173;SDS011;68599;49.142;9.124;2023-03-14T19:20:44;2.50;;;0.40;;
79173;SDS011;68599;49.142;9.124;2023-03-14T19:23:31;1.50;;;0.60;;
79173;SDS011;68599;49.142;9.124;2023-03-14T19:25:58;2.10;;;0.40;;
79173;SDS011;68599;49.142;9.124;2023-03-14T19:28:25;2.00;;;0.40;;
79173;SDS011;68599;49.142;9.124;2023-03-14T19:30:51;0.90;;;0.30;;
79173;SDS011;68599;49.142;9.124;2023-03-14T19:33:18;1.60;;;0.60;;
79173;SDS011;68599;49.142;9.124;2023-03-14T19:35:45;1.40;;;0.60;;
79173;SDS011;68599;49.142;9.124;2023-03-14T19:38:12;0.90;;;0.40;;
79173;SDS011;68599;49.142;9.124;2023-03-14T19:43:08;1.90;;;0.40;;
79173;SDS011;68599;49.142;9.124;2023-03-14T19:45:35;2.30;;;0.50;;
79173;SDS011;68599;49.142;9.124;2023-03-14T19:48:03;2.70;;;0.50;;
79173;SDS011;68599;49.142;9.124;2023-03-14T19:50:31;1.80;;;0.50;;
79173;SDS011;68599;49.142;9.124;2023-03-14T19:53:00;1.60;;;0.80;;
79173;SDS011;68599;49.142;9.124;2023-03-14T19:55:29;0.70;;;0.20;;
79173;SDS011;68599;49.142;9.124;2023-03-14T19:57:59;0.60;;;0.30;;
79173;SDS011;68599;49.142;9.124;2023-03-14T20:00:26;0.60;;;0.30;;
79173;SDS011;68599;49.142;9.124;2023-03-14T20:02:53;0.80;;;0.30;;
79173;SDS011;68599;49.142;9.124;2023-03-14T20:05:20;1.00;;;0.40;;
79173;SDS011;68599;49.142;9.124;2023-03-14T20:07:48;0.80;;;0.30;;
79173;SDS011;68599;49.142;9.124;2023-03-14T20:10:17;1.50;;;0.40;;
79173;SDS011;68599;49.142;9.124;2023-03-14T20:12:48;1.10;;;0.40;;
79173;SDS011;68599;49.142;9.124;2023-03-14T20:15:16;1.20;;;0.50;;
79173;SDS011;68599;49.142;9.124;2023-03-14T20:17:47;1.00;;;0.60;;
79173;SDS011;68599;49.142;9.124;2023-03-14T20:20:14;2.40;;;0.80;;
79173;SDS011;68599;49.142;9.124;2023-03-14T20:22:42;2.70;;;1.00;;
79173;SDS011;68599;49.142;9.124;2023-03-14T20:25:10;0.60;;;0.30;;
79173;SDS011;68599;49.142;9.124;2023-03-14T20:27:39;3.30;;;0.70;;
79173;SDS011;68599;49.142;9.124;2023-03-14T20:30:07;1.30;;;0.50;;
79173;SDS011;68599;49.142;9.124;2023-03-14T20:32:38;3.30;;;1.10;;
79173;SDS011;68599;49.142;9.124;2023-03-14T20:35:06;3.00;;;0.70;;
79173;SDS011;68599;49.142;9.124;2023-03-14T20:37:35;3.40;;;0.90;;
79173;SDS011;68599;49.142;9.124;2023-03-14T20:40:02;10.90;;;3.50;;
79173;SDS011;68599;49.142;9.124;2023-03-14T20:42:34;3.80;;;1.40;;
79173;SDS011;68599;49.142;9.124;2023-03-14T20:45:01;2.30;;;0.70;;
79173;SDS011;68599;49.142;9.124;2023-03-14T20:47:27;2.10;;;0.60;;
79173;SDS011;68599;49.142;9.124;2023-03-14T20:49:54;0.90;;;0.40;;
79173;SDS011;68599;49.142;9.124;2023-03-14T20:52:20;0.80;;;0.30;;
79173;SDS011;68599;49.142;9.124;2023-03-14T20:54:47;1.90;;;0.50;;
79173;SDS011;68599;49.142;9.124;2023-03-14T20:57:14;1.30;;;0.30;;
79173;SDS011;68599;49.142;9.124;2023-03-14T20:59:41;1.20;;;0.50;;
79173;SDS011;68599;49.142;9.124;2023-03-14T21:02:08;0.70;;;0.40;;
79173;SDS011;68599;49.142;9.124;2023-03-14T21:04:35;1.80;;;0.40;;
79173;SDS011;68599;49.142;9.124;2023-03-14T21:07:02;0.80;;;0.40;;
79173;SDS011;68599;49.142;9.124;2023-03-14T21:09:29;2.60;;;0.80;;
79173;SDS011;68599;49.142;9.124;2023-03-14T21:11:55;1.80;;;0.70;;
79173;SDS011;68599;49.142;9.124;2023-03-14T21:14:22;2.10;;;0.90;;
79173;SDS011;68599;49.142;9.124;2023-03-14T21:16:48;1.20;;;0.80;;
79173;SDS011;68599;49.142;9.124;2023-03-14T21:19:15;3.70;;;0.80;;
79173;SDS011;68599;49.142;9.124;2023-03-14T21:21:42;4.00;;;1.10;;
79173;SDS011;68599;49.142;9.124;2023-03-14T21:24:08;4.90;;;1.40;;
79173;SDS011;68599;49.142;9.124;2023-03-14T21:26:35;3.20;;;0.90;;
79173;SDS011;68599;49.142;9.124;2023-03-14T21:29:01;2.40;;;0.80;;
79173;SDS011;68599;49.142;9.124;2023-03-14T21:31:29;1.50;;;0.70;;
79173;SDS011;68599;49.142;9.124;2023-03-14T21:33:56;2.80;;;0.80;;
79173;SDS011;68599;49.142;9.124;2023-03-14T21:36:22;1.70;;;0.60;;
79173;SDS011;68599;49.142;9.124;2023-03-14T21:38:49;2.50;;;0.60;;
79173;SDS011;68599;49.142;9.124;2023-03-14T21:41:15;3.90;;;1.20;;
79173;SDS011;68599;49.142;9.124;2023-03-14T21:43:42;1.50;;;0.60;;
79173;SDS011;68599;49.142;9.124;2023-03-14T21:46:11;1.20;;;0.60;;
79173;SDS011;68599;49.142;9.124;2023-03-14T21:48:38;1.80;;;0.70;;
79173;SDS011;68599;49.142;9.124;2023-03-14T21:51:05;1.30;;;0.60;;
79173;SDS011;68599;49.142;9.124;2023-03-14T21:53:32;1.70;;;0.40;;
79173;SDS011;68599;49.142;9.124;2023-03-14T21:55:59;1.50;;;0.60;;
79173;SDS011;68599;49.142;9.124;2023-03-14T21:58:26;2.00;;;0.60;;
79173;SDS011;68599;49.142;9.124;2023-03-14T22:00:53;2.20;;;0.50;;
79173;SDS011;68599;49.142;9.124;2023-03-14T22:03:27;1.80;;;0.60;;
79173;SDS011;68599;49.142;9.124;2023-03-14T22:05:54;2.00;;;0.70;;
79173;SDS011;68599;49.142;9.124;2023-03-14T22:08:20;3.70;;;0.90;;
79173;SDS011;68599;49.142;9.124;2023-03-14T22:10:49;3.30;;;0.80;;
79173;SDS011;68599;49.142;9.124;2023-03-14T22:13:17;3.90;;;0.70;;
79173;SDS011;68599;49.142;9.124;2023-03-14T22:15:45;3.10;;;0.70;;
79173;SDS011;68599;49.142;9.124;2023-03-14T22:18:13;3.40;;;0.80;;
79173;SDS011;68599;49.142;9.124;2023-03-14T22:23:07;4.40;;;0.90;;
79173;SDS011;68599;49.142;9.124;2023-03-14T22:25:37;4.90;;;0.60;;
79173;SDS011;68599;49.142;9.124;2023-03-14T22:28:05;2.30;;;0.70;;
79173;SDS011;68599;49.142;9.124;2023-03-14T22:30:31;1.80;;;0.70;;
79173;SDS011;68599;49.142;9.124;2023-03-14T22:32:58;2.20;;;0.80;;
79173;SDS011;68599;49.142;9.124;2023-03-14T22:35:25;2.70;;;0.80;;
79173;SDS011;68599;49.142;9.124;2023-03-14T22:37:51;4.40;;;1.00;;
79173;SDS011;68599;49.142;9.124;2023-03-14T22:40:18;2.00;;;1.00;;
79173;SDS011;68599;49.142;9.124;2023-03-14T22:42:44;1.60;;;0.70;;
79173;SDS011;68599;49.142;9.124;2023-03-14T22:45:14;2.50;;;0.80;;
79173;SDS011;68599;49.142;9.124;2023-03-14T22:47:41;1.30;;;0.50;;
79173;SDS011;68599;49.142;9.124;2023-03-14T22:50:08;1.70;;;0.60;;
79173;SDS011;68599;49.142;9.124;2023-03-14T22:52:34;1.60;;;0.70;;
79173;SDS011;68599;49.142;9.124;2023-03-14T22:55:01;1.90;;;0.60;;
79173;SDS011;68599;49.142;9.124;2023-03-14T22:57:28;3.90;;;0.70;;
79173;SDS011;68599;49.142;9.124;2023-03-14T22:59:54;2.90;;;1.00;;
79173;SDS011;68599;49.142;9.124;2023-03-14T23:02:21;2.10;;;0.60;;
79173;SDS011;68599;49.142;9.124;2023-03-14T23:04:47;1.40;;;0.70;;
79173;SDS011;68599;49.142;9.124;2023-03-14T23:07:14;2.40;;;0.90;;
79173;SDS011;68599;49.142;9.124;2023-03-14T23:09:40;3.00;;;0.70;;
79173;SDS011;68599;49.142;9.124;2023-03-14T23:12:07;0.70;;;0.40;;
79173;SDS011;68599;49.142;9.124;2023-03-14T23:14:34;1.90;;;0.80;;
79173;SDS011;68599;49.142;9.124;2023-03-14T23:17:00;2.50;;;0.50;;
79173;SDS011;68599;49.142;9.124;2023-03-14T23:19:27;2.30;;;0.50;;
79173;SDS011;68599;49.142;9.124;2023-03-14T23:21:54;1.20;;;0.50;;
79173;SDS011;68599;49.142;9.124;2023-03-14T23:24:21;1.90;;;0.50;;
79173;SDS011;68599;49.142;9.124;2023-03-14T23:26:47;1.00;;;0.60;;
79173;SDS011;68599;49.142;9.124;2023-03-14T23:29:14;2.30;;;0.50;;
79173;SDS011;68599;49.142;9.124;2023-03-14T23:31:40;1.80;;;0.80;;
79173;SDS011;68599;49.142;9.124;2023-03-14T23:34:07;1.60;;;0.70;;
79173;SDS011;68599;49.142;9.124;2023-03-14T23:36:34;2.40;;;0.50;;
79173;SDS011;68599;49.142;9.124;2023-03-14T23:39:03;2.30;;;0.80;;
79173;SDS011;68599;49.142;9.124;2023-03-14T23:41:30;1.80;;;0.60;;
79173;SDS011;68599;49.142;9.124;2023-03-14T23:43:56;1.10;;;0.60;;
79173;SDS011;68599;49.142;9.124;2023-03-14T23:46:23;1.90;;;0.90;;